Time;durP1;ratioP1;P1;durP2;ratioP2;P2;SDS_P1;SDS_P2;PMS_P1;PMS_P2;Temp;Humidity;BMP_temperature;BMP_pressure;BME280_temperature;BME280_humidity;BME280_pressure;Samples;Min_cycle;Max_cycle;Signal;HPM_P1;HPM_P2
2021/11/08 00:01:19;;;;;;;5.53;1.63;;;8.90;83.40;;;;;;5035572;28;20021;-73
2021/11/08 00:03:47;;;;;;;6.00;1.88;;;8.90;83.50;;;;;;5040076;28;20030;-74
2021/11/08 00:06:16;;;;;;;8.32;2.30;;;8.80;83.50;;;;;;5037933;28;20043;-73
2021/11/08 00:08:42;;;;;;;7.18;2.20;;;8.80;83.50;;;;;;5034185;28;20072;-74
2021/11/08 00:11:08;;;;;;;6.53;2.20;;;8.80;83.50;;;;;;5033706;28;20053;-73
2021/11/08 00:13:36;;;;;;;5.35;2.00;;;8.80;83.70;;;;;;5023513;28;20125;-73
2021/11/08 00:16:27;;;;;;;8.63;2.17;;;8.70;83.70;;;;;;5029550;28;20039;-73
2021/11/08 00:21:34;;;;;;;5.88;2.40;;;8.70;83.80;;;;;;5031991;28;20540;-74
2021/11/08 00:24:00;;;;;;;6.45;1.90;;;8.70;83.80;;;;;;5030845;28;20083;-74
2021/11/08 00:26:26;;;;;;;5.35;1.70;;;8.70;83.90;;;;;;5031383;28;20431;-74
2021/11/08 00:28:52;;;;;;;6.25;2.25;;;8.70;83.90;;;;;;5030934;28;20033;-73
2021/11/08 00:31:18;;;;;;;8.20;2.10;;;8.70;83.90;;;;;;5030850;28;20384;-73
2021/11/08 00:33:44;;;;;;;6.57;2.10;;;8.70;84.00;;;;;;5031079;28;20076;-74
2021/11/08 00:36:09;;;;;;;6.63;2.10;;;8.70;83.90;;;;;;5031681;28;20092;-74
2021/11/08 00:38:35;;;;;;;7.45;2.60;;;8.70;83.90;;;;;;5030741;28;20079;-74
2021/11/08 00:41:01;;;;;;;5.78;2.20;;;8.70;83.90;;;;;;5031570;28;20056;-72
2021/11/08 00:43:28;;;;;;;7.78;2.15;;;8.70;83.90;;;;;;5031592;28;20040;-72
2021/11/08 00:45:54;;;;;;;8.88;3.90;;;8.70;84.00;;;;;;5029237;28;20029;-74
2021/11/08 00:48:22;;;;;;;8.77;3.28;;;8.70;84.60;;;;;;5031004;28;20026;-72
2021/11/08 00:50:49;;;;;;;11.63;3.83;;;8.60;84.00;;;;;;5023213;28;20018;-72
2021/11/08 00:53:16;;;;;;;8.77;3.00;;;8.60;84.00;;;;;;5049392;28;20034;-73
2021/11/08 00:55:42;;;;;;;8.57;2.83;;;8.60;84.10;;;;;;5014696;28;20034;-73
2021/11/08 00:58:15;;;;;;;5.85;2.60;;;8.50;84.10;;;;;;5021976;28;20079;-72
2021/11/08 01:00:41;;;;;;;9.52;2.55;;;8.60;84.20;;;;;;5020967;28;20113;-73
2021/11/08 01:03:09;;;;;;;6.75;2.20;;;8.60;84.20;;;;;;5031356;28;20100;-73
2021/11/08 01:05:34;;;;;;;9.38;2.50;;;8.50;84.20;;;;;;5024283;28;20117;-72
2021/11/08 01:08:01;;;;;;;5.95;2.00;;;8.50;84.20;;;;;;5020949;28;20112;-72
2021/11/08 01:10:27;;;;;;;4.00;1.80;;;8.50;84.30;;;;;;5028835;28;20026;-72
2021/11/08 01:12:53;;;;;;;5.45;1.60;;;8.50;84.90;;;;;;5013120;28;20026;-72
2021/11/08 01:15:19;;;;;;;5.95;1.83;;;8.50;84.30;;;;;;5027878;28;20069;-72
2021/11/08 01:17:45;;;;;;;6.13;2.20;;;8.50;84.20;;;;;;5029278;28;20029;-72
2021/11/08 01:20:11;;;;;;;7.72;2.20;;;8.50;84.30;;;;;;5027654;28;20471;-72
2021/11/08 01:22:38;;;;;;;7.20;2.45;;;8.50;84.30;;;;;;5020754;28;20022;-72
2021/11/08 01:25:06;;;;;;;4.47;1.80;;;8.50;84.30;;;;;;5032137;28;20469;-72
2021/11/08 01:27:42;;;;;;;6.28;1.80;;;8.50;84.40;;;;;;5018266;28;20026;-72
2021/11/08 01:30:17;;;;;;;6.00;2.00;;;8.50;84.40;;;;;;5024553;28;20025;-72
2021/11/08 01:32:55;;;;;;;5.55;2.10;;;8.50;84.40;;;;;;5020291;28;20484;-73
2021/11/08 01:35:29;;;;;;;7.88;2.25;;;8.40;84.40;;;;;;5027809;28;20040;-72
2021/11/08 01:38:03;;;;;;;4.72;1.80;;;8.50;84.40;;;;;;5031659;28;20431;-72
2021/11/08 01:40:30;;;;;;;6.75;2.03;;;8.40;84.40;;;;;;5030606;28;20029;-72
2021/11/08 01:42:56;;;;;;;6.75;1.98;;;8.50;84.50;;;;;;5020155;28;20030;-72
2021/11/08 01:45:21;;;;;;;4.93;1.67;;;8.50;84.50;;;;;;5048876;28;20117;-72
2021/11/08 01:47:47;;;;;;;5.00;1.70;;;8.50;84.40;;;;;;5028576;28;20109;-71
2021/11/08 01:50:13;;;;;;;5.03;1.88;;;8.50;84.30;;;;;;5012795;28;20022;-72
2021/11/08 01:52:38;;;;;;;6.57;1.95;;;8.60;84.30;;;;;;5013034;28;20453;-72
2021/11/08 01:55:04;;;;;;;5.68;2.20;;;8.60;84.30;;;;;;5014262;28;20049;-72
2021/11/08 01:57:31;;;;;;;5.75;2.05;;;8.60;84.30;;;;;;5023774;28;20025;-72
2021/11/08 01:59:59;;;;;;;9.82;3.50;;;8.60;84.30;;;;;;5028816;28;20029;-72
2021/11/08 02:02:26;;;;;;;10.25;3.80;;;8.60;84.30;;;;;;5048706;28;20049;-72
2021/11/08 02:04:52;;;;;;;8.75;2.53;;;8.60;84.30;;;;;;5028496;28;20087;-73
2021/11/08 02:07:18;;;;;;;4.80;2.20;;;8.60;84.30;;;;;;5023815;28;20037;-72
2021/11/08 02:09:43;;;;;;;5.00;1.88;;;8.60;84.20;;;;;;5031020;28;20018;-72
2021/11/08 02:12:10;;;;;;;7.95;1.88;;;8.60;84.20;;;;;;5030174;28;20029;-72
2021/11/08 02:14:40;;;;;;;4.90;1.77;;;8.60;84.20;;;;;;5018166;28;20029;-72
2021/11/08 02:17:07;;;;;;;4.03;1.60;;;8.60;84.20;;;;;;5022082;28;20503;-72
2021/11/08 02:19:33;;;;;;;5.65;1.67;;;8.60;84.20;;;;;;5029289;28;20064;-72
2021/11/08 02:22:01;;;;;;;4.15;1.70;;;8.60;84.30;;;;;;5019278;28;20038;-72
2021/11/08 02:24:28;;;;;;;5.30;1.80;;;8.50;84.30;;;;;;5016021;28;20038;-72
2021/11/08 02:26:54;;;;;;;5.88;1.98;;;8.50;84.20;;;;;;5015204;28;20022;-72
2021/11/08 02:29:19;;;;;;;5.47;1.60;;;8.50;84.30;;;;;;5022602;28;20492;-72
2021/11/08 02:31:45;;;;;;;4.70;1.52;;;8.50;84.20;;;;;;5031120;28;20376;-72
2021/11/08 02:34:11;;;;;;;5.57;1.60;;;8.50;84.20;;;;;;5017591;28;20144;-72
2021/11/08 02:36:41;;;;;;;4.68;1.65;;;8.60;84.30;;;;;;5030594;28;20108;-73
2021/11/08 02:39:13;;;;;;;4.78;1.63;;;8.50;84.20;;;;;;5027340;28;20018;-73
2021/11/08 02:41:39;;;;;;;4.45;1.40;;;8.50;84.30;;;;;;5023328;28;20036;-72
2021/11/08 02:44:05;;;;;;;4.20;1.70;;;8.40;84.30;;;;;;5030945;28;20412;-72
2021/11/08 02:46:37;;;;;;;5.43;1.70;;;8.40;84.40;;;;;;5018972;28;20100;-73
2021/11/08 02:49:05;;;;;;;5.95;1.50;;;8.30;84.40;;;;;;5030088;28;20025;-73
2021/11/08 02:51:31;;;;;;;6.53;2.00;;;8.30;84.50;;;;;;5014204;28;20072;-73
2021/11/08 02:54:10;;;;;;;9.15;2.55;;;8.30;84.60;;;;;;5011963;28;20516;-72
2021/11/08 02:56:36;;;;;;;5.85;1.98;;;8.20;84.60;;;;;;5013512;28;20022;-72
2021/11/08 02:59:02;;;;;;;6.55;2.30;;;8.20;84.70;;;;;;5023356;28;20480;-73
2021/11/08 03:01:28;;;;;;;6.65;2.17;;;8.20;84.80;;;;;;5026978;28;20022;-73
2021/11/08 03:03:58;;;;;;;6.88;2.58;;;8.20;84.80;;;;;;5031226;28;20032;-72
2021/11/08 03:06:32;;;;;;;7.72;2.60;;;8.10;84.80;;;;;;5023264;28;20045;-73
2021/11/08 03:09:21;;;;;;;5.55;2.30;;;8.10;84.90;;;;;;5029403;28;20022;-73
2021/11/08 03:11:48;;;;;;;5.97;2.42;;;8.10;85.00;;;;;;5026412;28;20597;-73
2021/11/08 03:14:17;;;;;;;6.20;2.30;;;8.10;84.90;;;;;;5029891;28;20068;-73
2021/11/08 03:16:54;;;;;;;9.18;2.65;;;8.10;84.90;;;;;;5014536;28;20087;-72
2021/11/08 03:19:25;;;;;;;8.13;2.45;;;8.10;84.90;;;;;;5019201;28;20088;-72
2021/11/08 03:21:55;;;;;;;6.85;2.38;;;8.10;84.90;;;;;;5026622;28;20029;-73
2021/11/08 03:24:38;;;;;;;6.95;2.38;;;8.00;84.90;;;;;;5021495;28;20049;-73
2021/11/08 03:27:22;;;;;;;;;;;8.00;84.90;;;;;;5022627;28;20026;-72
2021/11/08 03:29:47;;;;;;;7.80;2.60;;;8.00;84.90;;;;;;5011905;28;19939;-72
2021/11/08 03:32:16;;;;;;;8.75;2.78;;;8.00;85.00;;;;;;5033165;28;20091;-72
2021/11/08 03:34:49;;;;;;;6.78;3.20;;;8.00;85.00;;;;;;5021102;28;20038;-72
2021/11/08 03:37:14;;;;;;;;;;;7.90;85.00;;;;;;5025491;28;20044;-72
2021/11/08 03:39:40;;;;;;;9.32;2.90;;;7.90;85.00;;;;;;5021466;28;20638;-72
2021/11/08 03:42:06;;;;;;;6.70;2.75;;;7.90;85.10;;;;;;5022413;28;20036;-72
2021/11/08 03:44:33;;;;;;;8.63;3.20;;;7.90;85.10;;;;;;5032544;28;20045;-73
2021/11/08 03:46:59;;;;;;;6.65;2.55;;;7.90;85.10;;;;;;5020347;28;20658;-73
2021/11/08 03:49:25;;;;;;;6.20;2.50;;;7.80;85.00;;;;;;5032222;28;20037;-72
2021/11/08 03:51:51;;;;;;;5.88;2.50;;;7.90;85.10;;;;;;5026093;28;20104;-72
2021/11/08 03:54:17;;;;;;;5.95;2.45;;;7.80;85.10;;;;;;5033076;28;20164;-72
2021/11/08 03:56:42;;;;;;;8.88;3.20;;;7.80;85.20;;;;;;5024087;28;20084;-72
2021/11/08 03:59:08;;;;;;;7.55;2.85;;;7.80;85.20;;;;;;5025221;28;20473;-72
2021/11/08 04:01:35;;;;;;;8.25;2.78;;;7.80;85.30;;;;;;5018127;28;20037;-73
2021/11/08 04:04:03;;;;;;;6.85;2.42;;;7.80;85.30;;;;;;5033009;28;20032;-72
2021/11/08 04:06:29;;;;;;;7.70;2.80;;;7.80;85.30;;;;;;5027407;28;20380;-72
2021/11/08 04:08:55;;;;;;;6.80;3.08;;;7.80;85.30;;;;;;5027145;28;20079;-72
2021/11/08 04:11:21;;;;;;;5.70;2.42;;;7.80;85.40;;;;;;5025850;28;20029;-72
2021/11/08 04:13:46;;;;;;;7.20;2.70;;;7.80;85.40;;;;;;5031446;28;20038;-72
2021/11/08 04:16:13;;;;;;;7.05;2.90;;;7.80;85.40;;;;;;5030557;28;20033;-72
2021/11/08 04:18:45;;;;;;;5.90;3.05;;;7.80;85.40;;;;;;5024164;28;20036;-72
2021/11/08 04:21:11;;;;;;;8.98;3.45;;;7.80;85.40;;;;;;5018406;28;20392;-72
2021/11/08 04:23:37;;;;;;;6.63;3.08;;;7.80;85.50;;;;;;5032190;28;20021;-72
2021/11/08 04:26:04;;;;;;;9.25;3.83;;;7.80;85.50;;;;;;5029238;28;20075;-72
2021/11/08 04:28:29;;;;;;;9.85;3.58;;;7.70;85.50;;;;;;5033137;28;20361;-72
2021/11/08 04:30:55;;;;;;;7.50;3.00;;;7.70;85.50;;;;;;5017239;28;20037;-72
2021/11/08 04:33:25;;;;;;;4.82;2.28;;;7.70;85.50;;;;;;5030805;28;20472;-72
2021/11/08 04:51:29;;;;;;;6.82;2.78;;;7.70;85.70;;;;;;5013794;28;20400;-72
2021/11/08 04:54:07;;;;;;;7.82;3.30;;;7.70;85.60;;;;;;5014502;28;20080;-72
2021/11/08 05:21:26;;;;;;;6.63;2.60;;;7.60;86.20;;;;;;5019794;28;20032;-72
2021/11/08 05:24:18;;;;;;;7.45;2.97;;;7.60;86.20;;;;;;5029544;28;20033;-72
2021/11/08 05:31:55;;;;;;;6.03;2.90;;;7.50;86.20;;;;;;5017234;28;20042;-73
2021/11/08 05:34:20;;;;;;;10.85;3.15;;;7.60;86.30;;;;;;5027554;28;20035;-73
2021/11/08 05:36:46;;;;;;;6.35;2.90;;;7.60;86.30;;;;;;5020648;28;20057;-73
2021/11/08 05:39:11;;;;;;;7.47;3.05;;;7.50;86.20;;;;;;5030882;28;20124;-73
2021/11/08 05:41:39;;;;;;;8.15;3.00;;;7.50;86.30;;;;;;5021438;28;20599;-73
2021/11/08 05:44:06;;;;;;;5.75;2.33;;;7.60;86.30;;;;;;5014848;28;20044;-72
2021/11/08 05:46:33;;;;;;;6.30;2.80;;;7.50;86.20;;;;;;5025914;28;20029;-72
2021/11/08 05:48:59;;;;;;;6.05;2.30;;;7.60;86.20;;;;;;5028142;28;20036;-73
2021/11/08 05:51:25;;;;;;;4.07;1.92;;;7.50;86.10;;;;;;5031217;28;20022;-72
2021/11/08 05:53:51;;;;;;;6.70;2.80;;;7.60;86.20;;;;;;5018807;28;20038;-72
2021/11/08 06:11:39;;;;;;;5.18;2.78;;;7.50;86.20;;;;;;5027720;28;20030;-72
2021/11/08 06:50:36;;;;;;;9.80;3.35;;;7.80;86.30;;;;;;5025559;28;20083;-72
2021/11/08 06:53:05;;;;;;;8.60;3.72;;;7.70;86.30;;;;;;5029030;28;20021;-72
2021/11/08 06:55:32;;;;;;;9.40;3.78;;;7.70;86.40;;;;;;5015047;28;20034;-72
2021/11/08 06:58:02;;;;;;;8.13;2.90;;;7.70;86.50;;;;;;5020806;28;20472;-72
2021/11/08 07:00:28;;;;;;;7.75;3.35;;;7.70;86.50;;;;;;5023439;28;20067;-71
2021/11/08 07:02:54;;;;;;;9.50;3.00;;;7.70;86.60;;;;;;5030330;28;20087;-71
2021/11/08 07:05:20;;;;;;;8.20;3.47;;;7.70;86.50;;;;;;5031818;28;20025;-72
2021/11/08 07:07:47;;;;;;;7.38;3.30;;;7.70;86.50;;;;;;5024214;28;20065;-72
2021/11/08 07:10:13;;;;;;;9.73;3.42;;;7.70;86.60;;;;;;5019110;28;20040;-72
2021/11/08 07:12:38;;;;;;;7.40;2.50;;;7.80;86.60;;;;;;5030286;28;20033;-72
2021/11/08 07:15:06;;;;;;;7.30;3.05;;;7.80;86.60;;;;;;5025627;28;20038;-70
2021/11/08 07:17:32;;;;;;;6.20;2.92;;;7.80;86.50;;;;;;5019444;28;20459;-70
2021/11/08 07:20:00;;;;;;;8.70;3.00;;;7.80;86.50;;;;;;5021394;28;20036;-71
2021/11/08 07:22:26;;;;;;;7.78;3.30;;;7.90;86.50;;;;;;5029673;28;20101;-71
2021/11/08 07:24:52;;;;;;;7.50;3.30;;;7.90;86.40;;;;;;5027062;28;20041;-70
2021/11/08 07:27:18;;;;;;;10.00;3.13;;;7.90;86.40;;;;;;5027091;28;20464;-70
2021/11/08 07:29:43;;;;;;;6.55;3.60;;;8.00;86.40;;;;;;5057335;28;20108;-70
2021/11/08 07:32:09;;;;;;;18.10;12.38;;;8.00;86.50;;;;;;5029092;28;20107;-70
2021/11/08 07:34:35;;;;;;;14.40;7.07;;;8.00;86.40;;;;;;5030079;28;20392;-70
2021/11/08 07:37:00;;;;;;;8.02;4.20;;;8.00;86.40;;;;;;5027890;28;20021;-70
2021/11/08 07:39:26;;;;;;;7.85;3.80;;;8.10;86.50;;;;;;5031173;28;20033;-70
2021/11/08 07:41:52;;;;;;;7.75;3.80;;;8.10;86.40;;;;;;5030766;28;20026;-70
2021/11/08 07:44:18;;;;;;;6.80;2.83;;;8.10;86.40;;;;;;5029023;28;20021;-70
2021/11/08 07:46:44;;;;;;;7.32;3.13;;;8.10;86.40;;;;;;5026170;28;20389;-70
2021/11/08 07:49:09;;;;;;;10.88;3.20;;;8.10;86.40;;;;;;5030536;28;20075;-71
2021/11/08 07:51:35;;;;;;;10.15;3.05;;;8.20;86.50;;;;;;5020314;28;20496;-70
2021/11/08 07:54:01;;;;;;;11.10;3.70;;;8.20;86.50;;;;;;5017015;28;20499;-70
2021/11/08 07:56:27;;;;;;;7.93;3.10;;;8.20;86.60;;;;;;5024256;28;20129;-70
2021/11/08 07:58:52;;;;;;;7.60;2.90;;;8.20;86.60;;;;;;5023470;28;20029;-70
2021/11/08 08:01:18;;;;;;;9.57;3.60;;;8.20;86.60;;;;;;5024469;28;20046;-70
2021/11/08 08:03:46;;;;;;;9.88;3.70;;;8.20;86.70;;;;;;5018209;28;20029;-70
2021/11/08 08:06:13;;;;;;;5.68;2.80;;;8.20;86.70;;;;;;5028401;28;20065;-70
2021/11/08 08:08:38;;;;;;;8.30;3.25;;;8.30;86.70;;;;;;5029302;28;20030;-71
2021/11/08 08:11:06;;;;;;;6.10;3.20;;;8.30;86.60;;;;;;5054568;28;20026;-71
2021/11/08 08:13:34;;;;;;;10.52;3.75;;;8.30;87.00;;;;;;5016122;28;20514;-70
2021/11/08 08:16:02;;;;;;;9.45;3.80;;;8.40;86.60;;;;;;5019960;28;20026;-70
2021/11/08 08:18:32;;;;;;;11.25;3.40;;;8.40;86.60;;;;;;5029578;28;20025;-71
2021/11/08 08:20:58;;;;;;;10.52;3.47;;;8.40;86.60;;;;;;5016938;28;20057;-71
2021/11/08 08:23:24;;;;;;;9.85;4.38;;;8.40;86.50;;;;;;5029392;28;20021;-71
2021/11/08 08:25:50;;;;;;;13.60;4.63;;;8.40;86.50;;;;;;5030901;28;20035;-71
2021/11/08 08:28:16;;;;;;;12.98;4.32;;;8.40;86.50;;;;;;5030521;28;20419;-71
2021/11/08 08:30:42;;;;;;;12.05;3.90;;;8.40;86.60;;;;;;5025125;28;20034;-71
2021/11/08 08:33:08;;;;;;;7.70;3.50;;;8.40;86.70;;;;;;5023882;28;20018;-72
2021/11/08 08:35:40;;;;;;;11.82;3.60;;;8.40;86.70;;;;;;5021820;28;20030;-72
2021/11/08 08:38:09;;;;;;;8.77;3.85;;;8.50;86.70;;;;;;5027163;28;20423;-72
2021/11/08 08:40:35;;;;;;;13.60;4.50;;;8.50;86.70;;;;;;5021868;28;20104;-72
2021/11/08 08:43:02;;;;;;;10.57;3.58;;;8.50;86.80;;;;;;5020786;28;20116;-70
2021/11/08 08:45:27;;;;;;;11.02;3.78;;;8.50;86.80;;;;;;5027811;28;20361;-71
2021/11/08 08:47:53;;;;;;;10.93;3.80;;;8.60;86.90;;;;;;5024625;28;20051;-72
2021/11/08 08:50:18;;;;;;;11.23;4.38;;;8.60;86.80;;;;;;5032676;28;20033;-71
2021/11/08 08:52:44;;;;;;;10.70;3.80;;;8.70;86.80;;;;;;5028660;28;20086;-72
2021/11/08 08:55:09;;;;;;;9.00;3.78;;;8.70;86.70;;;;;;5019857;28;20074;-72
2021/11/08 08:57:35;;;;;;;6.80;3.10;;;8.80;86.70;;;;;;5027727;28;20107;-73
2021/11/08 09:00:01;;;;;;;8.52;3.28;;;8.80;86.70;;;;;;5020948;28;20030;-73
2021/11/08 09:02:27;;;;;;;7.03;2.85;;;8.90;86.70;;;;;;5021170;28;20026;-73
2021/11/08 09:04:52;;;;;;;10.75;4.00;;;8.90;86.60;;;;;;5013355;28;20041;-73
2021/11/08 09:07:18;;;;;;;8.52;3.88;;;8.90;86.50;;;;;;5024333;28;20028;-73
2021/11/08 09:09:44;;;;;;;7.13;3.22;;;9.00;86.60;;;;;;5027220;28;20052;-73
2021/11/08 09:12:10;;;;;;;13.60;3.88;;;9.00;87.20;;;;;;5017218;28;20157;-73
2021/11/08 09:14:37;;;;;;;9.43;3.75;;;9.10;86.50;;;;;;5003765;28;20033;-73
2021/11/08 09:17:04;;;;;;;10.18;3.75;;;9.10;86.50;;;;;;5027656;28;20041;-73
2021/11/08 09:19:30;;;;;;;10.77;3.55;;;9.20;86.70;;;;;;5020167;28;20036;-73
2021/11/08 09:21:56;;;;;;;12.77;3.55;;;9.30;86.60;;;;;;5019059;28;20053;-73
2021/11/08 09:24:22;;;;;;;11.45;4.13;;;9.40;86.50;;;;;;5029793;28;20026;-74
2021/11/08 09:26:49;;;;;;;11.82;3.75;;;9.40;86.40;;;;;;5028260;28;20053;-74
2021/11/08 09:29:16;;;;;;;10.93;4.20;;;9.50;86.40;;;;;;5025979;28;20022;-74
2021/11/08 09:31:42;;;;;;;10.13;3.63;;;9.60;86.40;;;;;;5025219;28;20034;-74
2021/11/08 09:34:10;;;;;;;12.45;4.50;;;9.60;86.30;;;;;;5019638;28;20469;-74
2021/11/08 09:36:37;;;;;;;8.20;3.17;;;9.60;86.80;;;;;;5014934;28;20025;-74
2021/11/08 09:39:21;;;;;;;11.07;4.07;;;9.70;86.20;;;;;;5016584;28;20041;-74
2021/11/08 09:41:47;;;;;;;9.07;3.45;;;9.70;86.10;;;;;;5016930;28;20017;-73
2021/11/08 09:44:14;;;;;;;10.27;3.55;;;9.70;86.00;;;;;;5021394;28;20105;-74
2021/11/08 09:46:40;;;;;;;8.85;3.42;;;9.70;86.00;;;;;;5015872;28;20029;-73
2021/11/08 09:49:07;;;;;;;5.43;2.35;;;9.70;86.00;;;;;;5029970;28;20032;-75
2021/11/08 09:51:44;;;;;;;8.18;3.40;;;9.70;85.90;;;;;;5026310;28;20025;-76
2021/11/08 09:54:11;;;;;;;12.68;5.22;;;9.80;86.00;;;;;;5024233;28;20025;-75
2021/11/08 09:56:42;;;;;;;10.07;4.15;;;9.70;86.50;;;;;;5015115;28;20658;-75
2021/11/08 09:59:09;;;;;;;11.93;4.20;;;9.70;86.00;;;;;;5017459;28;20675;-75
2021/11/08 10:01:39;;;;;;;9.95;4.30;;;9.70;85.90;;;;;;5027067;28;20049;-76
2021/11/08 10:04:06;;;;;;;9.00;4.30;;;9.70;86.00;;;;;;5030427;28;20408;-75
2021/11/08 10:06:32;;;;;;;9.27;4.53;;;9.70;86.10;;;;;;5021253;28;20018;-75
2021/11/08 10:08:59;;;;;;;9.65;3.90;;;9.70;86.20;;;;;;5048473;28;20030;-75
2021/11/08 10:11:26;;;;;;;11.27;3.75;;;9.70;86.20;;;;;;5021949;28;20160;-75
2021/11/08 10:13:52;;;;;;;8.88;3.85;;;9.70;86.20;;;;;;5019982;28;20029;-75
2021/11/08 10:16:22;;;;;;;13.18;4.32;;;9.80;86.30;;;;;;5021901;28;20057;-75
2021/11/08 10:18:54;;;;;;;10.07;3.88;;;9.80;86.30;;;;;;5025400;28;20042;-75
2021/11/08 10:21:26;;;;;;;8.35;3.75;;;9.90;86.30;;;;;;5051294;28;20029;-75
2021/11/08 10:23:53;;;;;;;12.98;4.78;;;9.90;86.20;;;;;;5021121;28;20057;-75
2021/11/08 10:26:22;;;;;;;12.90;4.38;;;10.00;86.20;;;;;;5021221;28;20018;-74
2021/11/08 10:28:58;;;;;;;11.63;3.72;;;10.00;86.10;;;;;;5046708;28;20095;-74
2021/11/08 10:31:30;;;;;;;8.63;3.40;;;10.10;86.00;;;;;;5026231;28;20024;-75
2021/11/08 10:33:58;;;;;;;8.75;3.72;;;10.20;85.90;;;;;;5023437;28;20484;-75
2021/11/08 10:36:25;;;;;;;9.02;3.50;;;10.30;85.70;;;;;;5024591;28;20029;-75
2021/11/08 10:38:54;;;;;;;10.52;4.07;;;10.30;85.60;;;;;;5012848;28;20034;-74
2021/11/08 10:41:21;;;;;;;11.30;4.47;;;10.40;85.50;;;;;;5026940;28;20049;-75
2021/11/08 10:43:54;;;;;;;15.20;4.85;;;10.40;85.40;;;;;;5028338;28;20036;-72
2021/11/08 10:46:24;;;;;;;12.02;3.95;;;10.40;85.40;;;;;;5026080;28;20040;-73
2021/11/08 10:48:57;;;;;;;12.43;3.78;;;10.50;85.40;;;;;;5024652;28;20033;-73
2021/11/08 10:51:24;;;;;;;;;;;10.60;85.50;;;;;;5018257;28;20488;-74
2021/11/08 10:53:57;;;;;;;13.15;4.90;;;10.60;85.30;;;;;;5025008;28;19945;-73
2021/11/08 10:56:25;;;;;;;11.27;4.15;;;10.70;85.50;;;;;;5015974;28;20112;-73
2021/11/08 10:58:51;;;;;;;9.32;3.80;;;10.70;85.40;;;;;;5028604;28;20024;-72
2021/11/08 11:01:24;;;;;;;7.47;3.35;;;10.80;85.30;;;;;;5026460;28;20040;-73
2021/11/08 11:03:52;;;;;;;6.35;2.80;;;10.90;85.20;;;;;;5018630;28;20033;-73
2021/11/08 11:06:19;;;;;;;7.65;2.90;;;10.90;85.00;;;;;;5018536;28;20029;-73
2021/11/08 11:08:50;;;;;;;10.65;3.70;;;11.00;84.80;;;;;;5022187;28;20101;-73
2021/11/08 11:11:24;;;;;;;8.93;2.80;;;11.00;84.70;;;;;;5019873;28;20096;-73
2021/11/08 11:13:54;;;;;;;14.73;3.75;;;11.10;84.60;;;;;;5025612;28;20083;-73
2021/11/08 11:16:32;;;;;;;9.93;3.42;;;11.10;84.50;;;;;;5021067;28;20034;-73
2021/11/08 11:19:07;;;;;;;9.27;3.00;;;11.20;84.40;;;;;;5025889;28;20076;-74
2021/11/08 11:21:35;;;;;;;8.23;3.10;;;11.30;84.20;;;;;;5026912;28;20022;-74
2021/11/08 11:24:03;;;;;;;10.35;3.60;;;11.40;84.00;;;;;;5026754;28;20495;-73
2021/11/08 11:26:34;;;;;;;7.63;2.42;;;11.40;83.70;;;;;;5024699;28;20026;-74
2021/11/08 11:29:03;;;;;;;8.30;2.70;;;11.50;83.60;;;;;;5022965;28;20500;-74
2021/11/08 11:31:33;;;;;;;8.55;2.65;;;11.60;83.20;;;;;;5019311;28;20030;-75
2021/11/08 11:34:14;;;;;;;7.55;2.65;;;11.70;83.00;;;;;;5021007;28;20029;-74
2021/11/08 11:36:41;;;;;;;7.93;2.40;;;11.70;82.80;;;;;;5027481;28;20426;-75
2021/11/08 11:39:13;;;;;;;4.78;2.05;;;11.80;82.80;;;;;;5027583;28;20029;-74
2021/11/08 11:41:40;;;;;;;8.32;2.58;;;11.90;83.20;;;;;;5020300;28;20467;-74
2021/11/08 11:44:09;;;;;;;11.45;3.30;;;12.10;83.60;;;;;;5026933;28;20037;-74
2021/11/08 11:46:41;;;;;;;10.18;2.60;;;12.40;82.50;;;;;;5028679;28;20113;-75
2021/11/08 11:49:08;;;;;;;12.57;3.33;;;12.60;81.80;;;;;;5023651;28;20040;-74
2021/11/08 11:51:37;;;;;;;30.30;4.18;;;12.90;80.80;;;;;;5029459;28;20022;-74
2021/11/08 11:54:05;;;;;;;11.88;3.00;;;13.00;79.40;;;;;;5031732;28;20034;-74
2021/11/08 11:56:33;;;;;;;9.45;2.58;;;13.30;78.80;;;;;;5023512;28;20041;-74
2021/11/08 11:59:00;;;;;;;11.57;2.83;;;13.50;78.00;;;;;;5031977;28;20045;-74
2021/11/08 12:01:28;;;;;;;11.13;2.45;;;13.40;77.40;;;;;;5021577;28;20055;-74
2021/11/08 12:03:53;;;;;;;12.15;2.50;;;13.30;77.50;;;;;;5029197;28;20101;-74
2021/11/08 12:06:28;;;;;;;7.13;2.08;;;13.20;78.00;;;;;;5028472;28;20144;-74
2021/11/08 12:08:57;;;;;;;6.03;2.00;;;13.10;77.80;;;;;;5030147;28;20029;-74
2021/11/08 12:11:31;;;;;;;13.35;2.50;;;13.10;78.20;;;;;;5022654;28;20117;-74
2021/11/08 12:14:01;;;;;;;7.75;2.15;;;13.00;78.20;;;;;;5029348;28;20489;-74
2021/11/08 12:16:28;;;;;;;14.48;2.83;;;13.00;78.30;;;;;;5021050;28;20032;-74
2021/11/08 12:18:56;;;;;;;20.02;2.80;;;12.90;78.10;;;;;;5021951;28;20052;-74
2021/11/08 12:21:35;;;;;;;8.07;1.90;;;12.80;78.00;;;;;;5018518;28;20045;-74
2021/11/08 12:24:13;;;;;;;9.13;2.38;;;12.80;78.20;;;;;;5028096;28;20057;-74
2021/11/08 12:26:40;;;;;;;10.13;2.45;;;12.80;78.20;;;;;;5028855;28;20018;-74
2021/11/08 12:29:13;;;;;;;22.63;3.55;;;12.80;78.10;;;;;;5022258;28;20108;-74
2021/11/08 12:31:40;;;;;;;9.10;2.35;;;12.80;78.10;;;;;;5020545;28;20026;-74
2021/11/08 12:34:08;;;;;;;10.63;2.25;;;12.70;78.20;;;;;;5030227;28;20041;-74
2021/11/08 12:36:35;;;;;;;10.13;2.70;;;12.70;78.10;;;;;;5032194;28;20472;-74
2021/11/08 12:39:10;;;;;;;10.13;2.30;;;12.70;78.10;;;;;;5029609;28;20025;-74
2021/11/08 12:41:50;;;;;;;6.80;2.08;;;12.70;78.10;;;;;;5030930;28;20026;-74
2021/11/08 12:44:18;;;;;;;11.10;2.58;;;12.70;77.90;;;;;;5031230;28;20112;-74
2021/11/08 12:46:47;;;;;;;11.00;2.35;;;12.70;77.70;;;;;;5017070;28;20097;-74
2021/11/08 12:49:27;;;;;;;5.50;1.83;;;12.60;78.20;;;;;;5031975;28;20549;-73
2021/11/08 12:51:57;;;;;;;11.35;1.95;;;12.70;77.60;;;;;;5026033;28;20076;-74
2021/11/08 12:54:25;;;;;;;6.93;2.00;;;12.70;77.60;;;;;;5018277;28;20037;-73
2021/11/08 12:56:51;;;;;;;8.48;2.42;;;12.60;77.40;;;;;;5030519;28;20029;-73
2021/11/08 12:59:26;;;;;;;8.55;2.40;;;12.60;77.20;;;;;;5030603;28;20484;-74
2021/11/08 13:02:00;;;;;;;11.95;2.13;;;12.60;77.10;;;;;;5027458;28;20021;-74
2021/11/08 13:04:41;;;;;;;17.83;2.45;;;12.60;77.30;;;;;;5027714;28;20396;-73
2021/11/08 13:07:10;;;;;;;7.30;1.95;;;12.70;77.40;;;;;;5052685;28;20139;-74
2021/11/08 13:09:42;;;;;;;9.43;2.33;;;12.80;77.20;;;;;;5029092;28;20547;-74
2021/11/08 13:12:17;;;;;;;9.15;2.33;;;12.80;77.10;;;;;;5029126;28;20029;-74
2021/11/08 13:14:45;;;;;;;9.25;2.60;;;12.80;77.00;;;;;;5027892;28;20083;-73
2021/11/08 13:17:20;;;;;;;8.63;2.50;;;12.80;77.00;;;;;;5029882;28;20080;-74
2021/11/08 13:20:16;;;;;;;7.07;2.03;;;12.80;76.60;;;;;;5029807;28;20030;-74
2021/11/08 13:22:46;;;;;;;10.60;2.08;;;12.80;76.60;;;;;;5022815;28;20037;-74
2021/11/08 13:25:34;;;;;;;25.00;2.75;;;12.90;76.60;;;;;;5030515;28;20038;-73
2021/11/08 13:28:03;;;;;;;7.72;1.85;;;12.90;76.60;;;;;;5020182;28;20088;-74
2021/11/08 13:30:47;;;;;;;12.65;2.47;;;12.90;76.60;;;;;;5031498;28;20045;-73
2021/11/08 13:33:20;;;;;;;6.65;1.52;;;12.90;76.70;;;;;;5027492;28;20121;-73
2021/11/08 13:35:47;;;;;;;6.22;1.75;;;12.80;76.80;;;;;;5022401;28;20041;-74
2021/11/08 13:38:26;;;;;;;7.95;1.83;;;12.80;76.80;;;;;;5019237;28;20056;-73
2021/11/08 13:41:08;;;;;;;5.43;1.70;;;12.80;76.90;;;;;;5025699;28;20100;-73
2021/11/08 13:43:42;;;;;;;;;;;12.70;76.90;;;;;;5050034;28;20029;-73
2021/11/08 13:46:30;;;;;;;7.07;2.00;;;12.70;77.00;;;;;;5023153;28;20007;-72
2021/11/08 13:48:58;;;;;;;8.10;2.10;;;12.70;77.10;;;;;;5014338;28;20045;-74
2021/11/08 13:51:45;;;;;;;7.97;2.05;;;12.60;76.90;;;;;;5025740;28;20428;-75
2021/11/08 13:54:14;;;;;;;7.22;2.03;;;12.70;77.00;;;;;;5061822;28;20081;-75
2021/11/08 13:56:45;;;;;;;6.80;2.00;;;12.60;76.90;;;;;;5030023;28;20582;-78
2021/11/08 13:59:15;;;;;;;8.47;2.17;;;12.60;76.90;;;;;;5033487;28;20052;-78
2021/11/08 14:01:44;;;;;;;6.00;1.70;;;12.70;77.50;;;;;;5031212;28;20280;-78
2021/11/08 14:04:11;;;;;;;6.85;1.85;;;12.70;76.90;;;;;;5019312;28;20033;-79
2021/11/08 14:06:39;;;;;;;6.85;2.10;;;12.70;76.90;;;;;;5029505;28;20029;-78
2021/11/08 14:09:18;;;;;;;10.13;2.33;;;12.60;76.90;;;;;;5019491;28;20033;-78
2021/11/08 14:11:46;;;;;;;10.10;2.42;;;12.70;76.90;;;;;;5016945;28;20040;-78
2021/11/08 14:14:20;;;;;;;7.43;2.10;;;12.60;76.80;;;;;;5017920;28;20018;-79
2021/11/08 14:16:48;;;;;;;6.93;1.95;;;12.70;76.90;;;;;;5026351;28;20488;-78
2021/11/08 14:19:16;;;;;;;8.45;2.40;;;12.60;76.90;;;;;;5027795;28;20116;-78
2021/11/08 14:21:45;;;;;;;10.63;2.42;;;12.70;77.00;;;;;;5062076;28;20029;-78
2021/11/08 14:24:14;;;;;;;14.40;2.33;;;12.70;77.00;;;;;;5021125;28;20034;-79
2021/11/08 14:26:50;;;;;;;10.43;2.53;;;12.60;76.90;;;;;;5027938;28;20488;-78
2021/11/08 14:29:22;;;;;;;9.68;2.65;;;12.60;77.00;;;;;;5018856;28;20033;-79
2021/11/08 14:31:55;;;;;;;14.85;2.35;;;12.70;77.10;;;;;;5032709;28;20052;-79
2021/11/08 14:34:26;;;;;;;11.73;2.42;;;12.60;77.10;;;;;;5030696;28;20037;-78
2021/11/08 14:36:52;;;;;;;159.23;8.77;;;12.60;77.20;;;;;;5035292;28;20028;-77
2021/11/08 14:39:26;;;;;;;14.68;2.90;;;12.60;77.30;;;;;;5031091;28;20115;-79
2021/11/08 14:41:54;;;;;;;6.07;2.17;;;12.70;77.30;;;;;;5027786;28;20029;-78